createdAt,value
2023-02-17T00:00:30.888Z,99994.66
2023-02-17T00:04:34.710Z,100003.75
2023-02-17T00:08:37.800Z,99998.78
2023-02-17T00:12:40.311Z,100005.31
2023-02-17T00:16:43.238Z,100007.81
2023-02-17T00:20:45.532Z,100011.84
2023-02-17T00:24:47.884Z,100008.31
2023-02-17T00:28:50.440Z,100006.47
2023-02-17T00:32:52.707Z,99993.38
2023-02-17T00:36:55.296Z,99988.34
2023-02-17T00:40:57.454Z,99994.69
2023-02-17T00:44:59.829Z,99990.31
2023-02-17T00:49:02.275Z,99985.19
2023-02-17T00:53:05.066Z,99988.91
2023-02-17T00:57:08.813Z,99984.66
2023-02-17T01:01:11.917Z,99988.81
2023-02-17T01:05:15.661Z,99997.03
2023-02-17T01:09:18.964Z,99998.25
2023-02-17T01:13:25.256Z,100000.34
2023-02-17T01:17:28.011Z,99998.09
2023-02-17T01:21:31.800Z,99998.47
2023-02-17T01:25:39.245Z,99979.00
2023-02-17T01:29:42.035Z,99974.56
2023-02-17T01:33:44.453Z,99974.19
2023-02-17T01:37:46.927Z,99956.97
2023-02-17T01:41:49.258Z,99959.16
2023-02-17T01:45:54.504Z,99949.66
2023-02-17T01:49:56.991Z,99958.34
2023-02-17T01:54:05.556Z,99954.75
2023-02-17T01:58:12.100Z,99956.69
2023-02-17T02:02:15.145Z,99947.34
2023-02-17T02:06:23.870Z,99950.09
2023-02-17T02:10:26.068Z,99955.38
2023-02-17T02:14:28.786Z,99949.22
2023-02-17T02:18:42.681Z,99944.22
2023-02-17T02:23:24.666Z,99943.31
2023-02-17T02:27:41.877Z,99933.28
2023-02-17T02:32:09.606Z,99926.25
2023-02-17T02:36:26.649Z,99940.13
2023-02-17T02:40:33.659Z,99924.56
2023-02-17T02:44:36.357Z,99930.66
2023-02-17T02:48:39.542Z,99917.13
2023-02-17T02:52:51.053Z,99926.97
2023-02-17T02:57:12.142Z,99923.47
2023-02-17T03:01:21.238Z,99924.94
2023-02-17T03:05:39.624Z,99922.75
2023-02-17T03:09:42.047Z,99929.19
2023-02-17T03:13:50.913Z,99924.94
2023-02-17T03:17:59.448Z,99925.56
2023-02-17T03:22:11.122Z,99920.41
2023-02-17T03:26:13.288Z,99926.97
2023-02-17T03:30:15.938Z,99916.75
2023-02-17T03:34:18.590Z,99910.72
2023-02-17T03:38:20.867Z,99908.66
2023-02-17T03:42:23.465Z,99913.56
2023-02-17T03:46:26.792Z,99922.75
2023-02-17T03:50:29.238Z,99926.16
2023-02-17T03:54:31.663Z,99923.81
2023-02-17T03:58:34.409Z,99934.19
2023-02-17T04:02:36.890Z,99934.84
2023-02-17T04:06:39.232Z,99931.84
2023-02-17T04:10:41.601Z,99941.81
2023-02-17T04:14:43.710Z,99928.84
2023-02-17T04:18:46.047Z,99934.66
2023-02-17T04:22:48.153Z,99952.97
2023-02-17T04:26:50.258Z,99949.31
2023-02-17T04:30:52.490Z,99953.16
2023-02-17T04:34:54.736Z,99944.56
2023-02-17T04:38:57.398Z,99949.88
2023-02-17T04:42:59.610Z,99945.81
2023-02-17T04:47:01.720Z,99944.81
2023-02-17T04:51:04.261Z,99951.75
2023-02-17T04:55:07.542Z,99953.09
2023-02-17T04:59:09.704Z,99954.28
2023-02-17T05:03:11.753Z,99954.25
2023-02-17T05:07:14.346Z,99948.56
2023-02-17T05:11:16.847Z,99948.91
2023-02-17T05:15:19.056Z,99957.81
2023-02-17T05:19:21.392Z,99966.81
2023-02-17T05:23:23.800Z,99950.00
2023-02-17T05:27:26.007Z,99948.16
2023-02-17T05:31:28.315Z,99950.75
2023-02-17T05:35:30.498Z,99948.50
2023-02-17T05:39:32.685Z,99958.72
2023-02-17T05:43:34.844Z,99952.22
2023-02-17T05:47:37.192Z,99956.69
2023-02-17T05:51:39.644Z,99963.56
2023-02-17T05:55:41.809Z,99961.50
2023-02-17T05:59:43.968Z,99977.84
2023-02-17T06:03:46.164Z,99970.06
2023-02-17T06:07:48.314Z,99979.22
2023-02-17T06:11:51.111Z,99980.34
2023-02-17T06:15:53.542Z,99980.97
2023-02-17T06:19:56.107Z,99981.97
2023-02-17T06:24:00.273Z,99990.44
2023-02-17T06:28:07.564Z,99995.31
2023-02-17T06:32:09.769Z,99993.91
2023-02-17T06:36:12.187Z,99995.88
2023-02-17T06:40:14.692Z,99996.22
2023-02-17T06:44:17.130Z,100004.59
2023-02-17T06:48:19.208Z,100016.25
2023-02-17T06:52:21.307Z,100017.19
2023-02-17T06:56:24.070Z,100027.28
2023-02-17T07:00:29.882Z,100023.66
2023-02-17T07:04:33.182Z,100030.00
2023-02-17T07:08:35.571Z,100030.53
2023-02-17T07:12:37.752Z,100030.47
2023-02-17T07:16:39.917Z,100023.06
2023-02-17T07:20:43.979Z,100028.47
2023-02-17T07:24:46.055Z,100032.28
2023-02-17T07:28:48.528Z,100024.66
2023-02-17T07:32:50.734Z,100028.00
2023-02-17T07:36:52.822Z,100021.88
2023-02-17T07:40:54.874Z,100024.06
2023-02-17T07:44:57.786Z,100027.78
2023-02-17T07:49:00.140Z,100031.31
2023-02-17T07:53:02.178Z,100028.78
2023-02-17T07:57:04.396Z,100015.00
2023-02-17T08:01:16.931Z,100017.31
2023-02-17T08:05:18.970Z,100024.03
2023-02-17T08:09:39.850Z,100023.84
2023-02-17T08:13:41.862Z,100029.41
2023-02-17T08:17:44.508Z,100031.25
2023-02-17T08:21:47.283Z,100032.38
2023-02-17T08:25:49.825Z,100041.84
2023-02-17T08:29:52.154Z,100040.53
2023-02-17T08:33:55.529Z,100044.88
2023-02-17T08:37:57.854Z,100045.09
2023-02-17T08:42:00.812Z,100050.81
2023-02-17T08:46:08.331Z,100057.72
2023-02-17T08:50:16.050Z,100048.78
2023-02-17T08:54:19.037Z,100058.00
2023-02-17T08:58:21.160Z,100054.91
2023-02-17T09:02:23.341Z,100065.13
2023-02-17T09:06:39.430Z,100056.56
2023-02-17T09:10:41.500Z,100054.25
2023-02-17T09:14:44.118Z,100061.94
2023-02-17T09:18:46.334Z,100051.34
2023-02-17T09:22:49.160Z,100051.75
2023-02-17T09:26:52.283Z,100048.47
2023-02-17T09:30:54.520Z,100057.25
2023-02-17T09:35:01.584Z,100062.00
2023-02-17T09:39:04.056Z,100055.66
2023-02-17T09:43:12.409Z,100042.59
2023-02-17T09:47:39.061Z,100034.19
2023-02-17T09:52:00.625Z,100026.25
2023-02-17T09:56:07.597Z,100025.44
2023-02-17T10:00:14.755Z,100033.03
2023-02-17T10:04:36.602Z,100032.53
2023-02-17T10:09:01.152Z,100033.78
2023-02-17T10:13:05.614Z,100031.22
2023-02-17T10:17:10.722Z,100033.31
2023-02-17T10:21:19.540Z,100035.53
2023-02-17T10:25:38.798Z,100033.56
2023-02-17T10:30:22.649Z,100033.41
2023-02-17T10:34:42.123Z,100034.69
2023-02-17T10:38:57.032Z,100024.66
2023-02-17T10:43:04.303Z,100015.94
2023-02-17T10:47:08.789Z,100004.94
2023-02-17T10:51:15.810Z,99992.75
2023-02-17T10:55:34.224Z,99995.09
2023-02-17T10:59:43.267Z,99978.59
2023-02-17T11:03:45.537Z,99988.38
2023-02-17T11:07:48.768Z,99992.91
2023-02-17T11:11:58.784Z,99971.09
2023-02-17T11:16:01.339Z,99977.44
2023-02-17T11:20:27.005Z,99968.97
2023-02-17T11:24:32.708Z,99963.97
2023-02-17T11:28:35.117Z,99965.47
2023-02-17T11:32:37.304Z,99962.97
2023-02-17T11:36:39.508Z,99956.63
2023-02-17T11:40:51.400Z,99964.97
2023-02-17T11:44:56.316Z,99950.66
2023-02-17T11:49:29.509Z,99943.53
2023-02-17T11:53:44.085Z,99951.97
2023-02-17T11:58:03.674Z,99952.78
2023-02-17T12:02:35.597Z,99939.09
2023-02-17T12:07:02.775Z,99936.91
2023-02-17T12:11:33.593Z,99936.72
2023-02-17T12:15:46.904Z,99920.56
2023-02-17T12:20:07.258Z,99923.06
2023-02-17T12:24:18.585Z,99927.28
2023-02-17T12:28:41.784Z,99925.63
2023-02-17T12:33:11.027Z,99928.44
2023-02-17T12:37:26.008Z,99918.31
2023-02-17T12:41:43.237Z,99918.13
2023-02-17T12:45:51.060Z,99919.38
2023-02-17T12:50:05.063Z,99913.22
2023-02-17T12:54:32.487Z,99905.19
2023-02-17T12:58:58.816Z,99909.97
2023-02-17T13:03:03.762Z,99909.69
2023-02-17T13:07:19.639Z,99904.13
2023-02-17T13:11:32.312Z,99902.88
2023-02-17T13:15:38.500Z,99898.41
2023-02-17T13:19:40.604Z,99885.22
2023-02-17T13:23:44.980Z,99887.19
2023-02-17T13:27:46.936Z,99883.09
2023-02-17T13:31:53.390Z,99882.41
2023-02-17T13:35:56.122Z,99875.47
2023-02-17T13:40:02.777Z,99878.50
2023-02-17T13:44:29.026Z,99880.81
2023-02-17T13:48:36.042Z,99886.19
2023-02-17T13:52:38.120Z,99883.34
2023-02-17T13:56:42.950Z,99880.16
2023-02-17T14:00:45.464Z,99868.59
2023-02-17T14:04:48.516Z,99866.72
2023-02-17T14:08:51.012Z,99868.94
2023-02-17T14:12:54.765Z,99878.22
2023-02-17T14:17:02.037Z,99871.28
2023-02-17T14:21:33.426Z,99868.16
2023-02-17T14:25:37.780Z,99872.78
2023-02-17T14:29:47.332Z,99861.84
2023-02-17T14:34:12.984Z,99877.78
2023-02-17T14:38:32.390Z,99877.69
2023-02-17T14:42:34.621Z,99869.88
2023-02-17T14:46:37.289Z,99869.41
2023-02-17T14:50:42.864Z,99867.66
2023-02-17T14:54:45.247Z,99877.19
2023-02-17T14:58:48.615Z,99880.94
2023-02-17T15:02:51.730Z,99880.38
2023-02-17T15:06:56.599Z,99874.25
2023-02-17T15:10:59.017Z,99876.75
2023-02-17T15:15:01.525Z,99873.75
2023-02-17T15:19:03.817Z,99883.09
2023-02-17T15:23:14.550Z,99875.00
2023-02-17T15:27:17.681Z,99870.53
2023-02-17T15:31:21.367Z,99873.38
2023-02-17T15:35:27.445Z,99864.97
2023-02-17T15:39:29.927Z,99875.47
2023-02-17T15:47:39.207Z,99868.19
2023-02-17T15:51:41.567Z,99872.38
2023-02-17T15:55:43.969Z,99874.94
2023-02-17T15:59:46.284Z,99869.53
2023-02-17T16:03:48.522Z,99873.09
2023-02-17T16:07:50.915Z,99875.84
2023-02-17T16:11:55.426Z,99881.34
2023-02-17T16:15:58.198Z,99878.16
2023-02-17T16:20:00.393Z,99874.50
2023-02-17T16:24:02.493Z,99885.81
2023-02-17T16:28:06.368Z,99878.34
2023-02-17T16:32:13.344Z,99876.59
2023-02-17T16:36:18.305Z,99885.22
2023-02-17T16:40:22.585Z,99884.88
2023-02-17T16:44:24.730Z,99888.72
2023-02-17T16:48:29.688Z,99892.34
2023-02-17T16:52:32.119Z,99893.63
2023-02-17T16:56:43.467Z,99896.44
2023-02-17T17:00:47.940Z,99890.28
2023-02-17T17:04:50.028Z,99895.97
2023-02-17T17:08:53.249Z,99898.97
2023-02-17T17:12:55.627Z,99905.81
2023-02-17T17:17:00.799Z,99914.50
2023-02-17T17:21:02.946Z,99915.31
2023-02-17T17:25:05.259Z,99920.63
2023-02-17T17:29:08.560Z,99919.03
2023-02-17T17:33:10.700Z,99913.34
2023-02-17T17:37:13.227Z,99924.47
2023-02-17T17:41:15.893Z,99918.09
2023-02-17T17:45:18.906Z,99922.72
2023-02-17T17:49:20.987Z,99924.06
2023-02-17T17:53:23.077Z,99938.06
2023-02-17T17:57:25.218Z,99931.28
2023-02-17T18:01:27.936Z,99938.41
2023-02-17T18:05:30.162Z,99938.44
2023-02-17T18:09:38.721Z,99932.91
2023-02-17T18:13:41.974Z,99940.47
2023-02-17T18:17:46.254Z,99936.91
2023-02-17T18:21:48.599Z,99939.47
2023-02-17T18:25:50.728Z,99942.44
2023-02-17T18:29:56.795Z,99941.97
2023-02-17T18:33:59.452Z,99945.38
2023-02-17T18:38:02.186Z,99940.91
2023-02-17T18:42:05.236Z,99941.66
2023-02-17T18:46:09.742Z,99946.00
2023-02-17T18:50:13.756Z,99942.56
2023-02-17T18:54:15.794Z,99947.94
2023-02-17T18:58:18.055Z,99951.91
2023-02-17T19:02:22.059Z,99959.50
2023-02-17T19:06:28.269Z,99957.25
2023-02-17T19:10:30.429Z,99960.50
2023-02-17T19:14:33.242Z,99956.47
2023-02-17T19:18:35.492Z,99964.84
2023-02-17T19:22:38.105Z,99973.81
2023-02-17T19:26:40.435Z,99966.91
2023-02-17T19:30:42.539Z,99980.34
2023-02-17T19:34:44.739Z,99973.59
2023-02-17T19:38:48.729Z,99970.88
2023-02-17T19:42:51.196Z,99974.53
2023-02-17T19:46:53.932Z,99971.91
2023-02-17T19:51:04.942Z,99972.09
2023-02-17T19:55:07.449Z,99972.03
2023-02-17T19:59:09.657Z,99978.91
2023-02-17T20:03:11.779Z,99984.84
2023-02-17T20:07:14.766Z,99988.63
2023-02-17T20:11:17.114Z,99986.78
2023-02-17T20:15:19.398Z,99994.59
2023-02-17T20:19:21.695Z,99998.09
2023-02-17T20:23:24.295Z,99995.00
2023-02-17T20:27:26.492Z,99997.25
2023-02-17T20:31:29.160Z,100006.22
2023-02-17T20:35:35.365Z,100011.69
2023-02-17T20:39:39.039Z,100018.19
2023-02-17T20:43:52.027Z,100013.50
2023-02-17T20:47:57.390Z,100018.56
2023-02-17T20:51:59.560Z,100016.56
2023-02-17T20:56:02.038Z,100015.56
2023-02-17T21:00:06.514Z,100012.72
2023-02-17T21:04:09.284Z,100008.44
2023-02-17T21:08:11.414Z,100012.94
2023-02-17T21:12:13.510Z,99997.00
2023-02-17T21:16:18.869Z,100008.88
2023-02-17T21:20:22.139Z,100013.75
2023-02-17T21:24:25.024Z,100025.94
2023-02-17T21:28:27.162Z,100019.41
2023-02-17T21:32:29.492Z,100025.88
2023-02-17T21:36:32.492Z,100022.59
2023-02-17T21:40:34.912Z,100019.34
2023-02-17T21:44:53.586Z,100006.56
2023-02-17T21:48:57.140Z,100007.13
2023-02-17T21:52:59.197Z,100012.22
2023-02-17T21:57:04.018Z,100016.69
2023-02-17T22:01:07.389Z,100017.19
2023-02-17T22:05:09.777Z,100020.28
2023-02-17T22:09:17.956Z,100014.75
2023-02-17T22:13:20.021Z,100020.25
2023-02-17T22:17:22.087Z,100014.13
2023-02-17T22:21:24.339Z,100010.81
2023-02-17T22:25:26.665Z,100005.91
2023-02-17T22:29:28.850Z,100012.44
2023-02-17T22:33:32.489Z,100012.38
2023-02-17T22:37:34.569Z,100004.66
2023-02-17T22:41:37.043Z,99998.69
2023-02-17T22:45:41.189Z,100009.22
2023-02-17T22:49:43.716Z,100002.69
2023-02-17T22:53:46.248Z,100010.41
2023-02-17T22:57:48.382Z,100003.72
2023-02-17T23:01:50.485Z,100016.06
2023-02-17T23:05:52.681Z,100001.38
2023-02-17T23:09:54.767Z,100016.28
2023-02-17T23:13:56.862Z,100012.59
2023-02-17T23:17:59.697Z,100020.41
2023-02-17T23:22:06.639Z,100017.28
2023-02-17T23:27:26.323Z,100010.28
2023-02-17T23:31:28.836Z,100014.16
2023-02-17T23:35:31.491Z,100007.56
2023-02-17T23:39:37.981Z,100012.41
2023-02-17T23:43:40.143Z,100006.69
2023-02-17T23:47:42.292Z,99999.34
2023-02-17T23:51:45.009Z,99996.59
2023-02-17T23:55:47.117Z,99994.44
2023-02-17T23:59:49.284Z,100001.13
